createdAt,value
2023-05-17T00:01:28.655Z,90.73
2023-05-17T00:03:56.768Z,91.01
2023-05-17T00:06:24.687Z,90.96
2023-05-17T00:08:54.063Z,91.30
2023-05-17T00:11:22.071Z,90.62
2023-05-17T00:13:50.031Z,90.58
2023-05-17T00:16:17.971Z,90.76
2023-05-17T00:18:46.162Z,90.88
2023-05-17T00:21:14.189Z,90.63
2023-05-17T00:23:42.130Z,90.36
2023-05-17T00:26:11.465Z,90.51
2023-05-17T00:28:40.330Z,90.29
2023-05-17T00:31:08.325Z,90.50
2023-05-17T00:33:36.423Z,90.12
2023-05-17T00:36:04.845Z,90.10
2023-05-17T00:38:32.938Z,90.20
2023-05-17T00:41:00.986Z,89.88
2023-05-17T00:43:30.451Z,90.00
2023-05-17T00:45:58.463Z,89.75
2023-05-17T00:48:26.938Z,89.67
2023-05-17T00:50:56.347Z,89.70
2023-05-17T00:53:24.699Z,89.57
2023-05-17T00:55:54.898Z,89.50
2023-05-17T00:58:24.047Z,89.31
2023-05-17T01:00:55.117Z,89.57
2023-05-17T01:03:23.633Z,89.30
2023-05-17T01:05:52.393Z,89.26
2023-05-17T01:08:20.438Z,89.02
2023-05-17T01:10:58.466Z,89.05
2023-05-17T01:13:33.206Z,89.53
2023-05-17T01:16:11.608Z,89.03
2023-05-17T01:18:45.901Z,89.25
2023-05-17T01:21:35.518Z,89.01
2023-05-17T01:24:24.501Z,88.94
2023-05-17T01:26:55.198Z,88.95
2023-05-17T01:29:27.722Z,88.79
2023-05-17T01:31:58.404Z,89.24
2023-05-17T01:34:27.177Z,88.78
2023-05-17T01:36:55.412Z,89.08
2023-05-17T01:39:23.322Z,89.75
2023-05-17T01:42:01.319Z,89.76
2023-05-17T01:44:37.965Z,89.60
2023-05-17T01:47:13.002Z,89.70
2023-05-17T01:49:42.759Z,89.39
2023-05-17T01:52:17.239Z,89.26
2023-05-17T01:54:50.084Z,89.36
2023-05-17T01:57:21.598Z,89.78
2023-05-17T01:59:52.859Z,89.66
2023-05-17T02:02:22.506Z,89.32
2023-05-17T02:04:51.574Z,89.24
2023-05-17T02:07:19.601Z,89.52
2023-05-17T02:09:47.606Z,90.05
2023-05-17T02:12:16.018Z,90.43
2023-05-17T02:14:45.408Z,90.27
2023-05-17T02:17:13.600Z,90.62
2023-05-17T02:19:41.699Z,90.76
2023-05-17T02:22:09.669Z,90.45
2023-05-17T02:24:37.578Z,90.66
2023-05-17T02:27:07.100Z,90.67
2023-05-17T02:29:35.198Z,90.73
2023-05-17T02:32:06.138Z,90.64
2023-05-17T02:34:34.327Z,90.60
2023-05-17T02:37:02.315Z,90.36
2023-05-17T02:39:30.263Z,90.41
2023-05-17T02:41:58.135Z,90.49
2023-05-17T02:44:26.190Z,90.19
2023-05-17T02:46:54.597Z,90.30
2023-05-17T02:49:23.987Z,90.26
2023-05-17T02:51:51.892Z,90.13
2023-05-17T02:54:19.886Z,89.95
2023-05-17T02:56:47.944Z,89.48
2023-05-17T02:59:16.068Z,89.16
2023-05-17T03:01:44.010Z,88.97
2023-05-17T03:04:12.671Z,89.02
2023-05-17T03:06:43.010Z,88.81
2023-05-17T03:09:11.175Z,88.71
2023-05-17T03:11:39.423Z,88.63
2023-05-17T03:14:13.524Z,88.36
2023-05-17T03:16:41.584Z,88.02
2023-05-17T03:19:10.144Z,88.19
2023-05-17T03:21:40.135Z,87.65
2023-05-17T03:24:09.684Z,87.12
2023-05-17T03:26:38.826Z,86.97
2023-05-17T03:29:08.704Z,86.34
2023-05-17T03:31:37.691Z,86.32
2023-05-17T03:34:05.923Z,86.43
2023-05-17T03:36:35.544Z,86.38
2023-05-17T03:39:03.514Z,85.88
2023-05-17T03:41:33.490Z,85.80
2023-05-17T03:44:02.421Z,85.75
2023-05-17T03:46:31.353Z,85.62
2023-05-17T03:48:59.771Z,85.19
2023-05-17T03:51:27.833Z,85.06
2023-05-17T03:53:59.456Z,84.64
2023-05-17T03:56:28.868Z,84.48
2023-05-17T03:58:58.158Z,84.38
2023-05-17T04:01:26.655Z,84.30
2023-05-17T04:03:54.682Z,84.01
2023-05-17T04:06:23.694Z,84.14
2023-05-17T04:08:51.724Z,83.69
2023-05-17T04:11:23.809Z,83.77
2023-05-17T04:13:52.040Z,83.36
2023-05-17T04:16:22.157Z,82.93
2023-05-17T04:18:52.753Z,82.65
2023-05-17T04:21:20.924Z,82.46
2023-05-17T04:23:49.297Z,82.35
2023-05-17T04:26:17.704Z,82.56
2023-05-17T04:28:45.781Z,82.05
2023-05-17T04:31:16.750Z,81.88
2023-05-17T04:33:46.927Z,82.08
2023-05-17T04:36:14.900Z,81.71
2023-05-17T04:38:43.998Z,81.93
2023-05-17T04:41:16.119Z,81.92
2023-05-17T04:43:44.595Z,81.46
2023-05-17T04:46:20.350Z,81.40
2023-05-17T04:48:50.110Z,81.32
2023-05-17T04:51:18.328Z,81.36
2023-05-17T04:53:46.444Z,81.21
2023-05-17T04:56:18.213Z,80.64
2023-05-17T04:58:46.187Z,80.63
2023-05-17T05:01:14.772Z,80.05
2023-05-17T05:03:42.936Z,80.10
2023-05-17T05:06:16.169Z,79.69
2023-05-17T05:08:44.353Z,78.99
2023-05-17T05:11:13.487Z,79.19
2023-05-17T05:13:42.380Z,79.48
2023-05-17T05:16:10.426Z,79.06
2023-05-17T05:18:38.892Z,78.48
2023-05-17T05:21:09.695Z,78.77
2023-05-17T05:23:40.573Z,78.20
2023-05-17T05:26:08.674Z,78.36
2023-05-17T05:28:37.310Z,78.36
2023-05-17T05:31:05.441Z,78.26
2023-05-17T05:33:41.704Z,78.61
2023-05-17T05:36:10.821Z,77.77
2023-05-17T05:38:40.153Z,77.41
2023-05-17T05:41:08.303Z,77.31
2023-05-17T05:43:38.277Z,77.57
2023-05-17T05:46:07.379Z,77.01
2023-05-17T05:48:39.396Z,76.66
2023-05-17T05:51:08.017Z,76.11
2023-05-17T05:53:38.046Z,76.43
2023-05-17T05:56:08.034Z,75.78
2023-05-17T05:58:36.002Z,76.17
2023-05-17T06:01:06.440Z,75.80
2023-05-17T06:03:34.675Z,75.63
2023-05-17T06:06:02.771Z,75.54
2023-05-17T06:08:30.768Z,75.93
2023-05-17T06:10:58.677Z,75.45
2023-05-17T06:13:27.981Z,75.15
2023-05-17T06:15:55.912Z,75.04
2023-05-17T06:18:26.328Z,75.45
2023-05-17T06:20:54.388Z,75.01
2023-05-17T06:23:22.322Z,75.15
2023-05-17T06:25:50.197Z,75.27
2023-05-17T06:28:18.643Z,75.48
2023-05-17T06:30:47.984Z,75.60
2023-05-17T06:33:16.001Z,75.59
2023-05-17T06:35:55.638Z,75.55
2023-05-17T06:38:24.608Z,75.73
2023-05-17T06:40:53.889Z,75.53
2023-05-17T06:43:22.600Z,75.31
2023-05-17T06:45:51.991Z,76.12
2023-05-17T06:48:20.239Z,75.73
2023-05-17T06:50:48.270Z,75.83
2023-05-17T06:53:16.346Z,76.09
2023-05-17T06:55:44.429Z,75.86
2023-05-17T06:58:12.490Z,76.41
2023-05-17T07:00:44.670Z,76.31
2023-05-17T07:03:14.040Z,76.51
2023-05-17T07:05:42.071Z,76.68
2023-05-17T07:08:10.049Z,76.49
2023-05-17T07:10:37.946Z,76.23
2023-05-17T07:13:05.893Z,76.38
2023-05-17T07:15:33.840Z,75.80
2023-05-17T07:18:01.918Z,75.44
2023-05-17T07:20:31.539Z,75.37
2023-05-17T07:22:59.475Z,74.84
2023-05-17T07:25:27.661Z,74.41
2023-05-17T07:27:56.041Z,74.17
2023-05-17T07:30:24.067Z,73.90
2023-05-17T07:32:52.109Z,73.66
2023-05-17T07:35:21.824Z,73.43
2023-05-17T07:37:51.464Z,73.35
2023-05-17T07:40:19.716Z,73.01
2023-05-17T07:42:47.659Z,72.84
2023-05-17T07:45:15.601Z,72.76
2023-05-17T07:47:43.658Z,73.20
2023-05-17T07:50:12.409Z,72.37
2023-05-17T07:52:40.479Z,72.60
2023-05-17T07:55:11.135Z,71.86
2023-05-17T07:57:39.033Z,72.02
2023-05-17T08:00:11.439Z,71.95
2023-05-17T08:02:42.587Z,71.48
2023-05-17T08:05:11.396Z,71.01
2023-05-17T08:07:39.392Z,70.53
2023-05-17T08:10:09.621Z,70.40
2023-05-17T08:12:37.611Z,70.31
2023-05-17T08:15:06.403Z,69.86
2023-05-17T08:17:34.507Z,70.01
2023-05-17T08:20:02.628Z,69.86
2023-05-17T08:22:30.541Z,70.30
2023-05-17T08:24:58.446Z,70.03
2023-05-17T08:27:27.707Z,69.92
2023-05-17T08:29:59.799Z,69.83
2023-05-17T08:32:28.134Z,69.50
2023-05-17T08:34:56.858Z,69.60
2023-05-17T08:37:24.998Z,69.90
2023-05-17T08:39:53.029Z,69.73
2023-05-17T08:42:25.200Z,69.53
2023-05-17T08:44:54.806Z,69.87
2023-05-17T08:47:29.960Z,69.95
2023-05-17T08:50:00.476Z,70.00
2023-05-17T08:52:31.190Z,70.18
2023-05-17T08:55:00.979Z,70.58
2023-05-17T08:57:31.393Z,70.30
2023-05-17T09:00:01.438Z,70.21
2023-05-17T09:02:31.735Z,70.11
2023-05-17T09:05:00.945Z,70.77
2023-05-17T09:07:28.831Z,71.73
2023-05-17T09:09:58.386Z,73.16
2023-05-17T09:12:26.387Z,74.32
2023-05-17T09:14:54.347Z,74.82
2023-05-17T09:17:23.851Z,76.47
2023-05-17T09:19:52.079Z,78.22
2023-05-17T09:22:20.677Z,78.63
2023-05-17T09:24:48.681Z,80.90
2023-05-17T09:27:19.538Z,82.83
2023-05-17T09:29:48.364Z,83.90
2023-05-17T09:32:18.014Z,84.30
2023-05-17T09:34:48.308Z,85.29
2023-05-17T09:37:18.250Z,86.31
2023-05-17T09:39:47.712Z,87.89
2023-05-17T09:42:16.964Z,88.71
2023-05-17T09:44:51.001Z,89.40
2023-05-17T09:47:26.373Z,90.12
2023-05-17T09:49:57.130Z,90.48
2023-05-17T09:52:25.826Z,90.93
2023-05-17T09:54:54.883Z,91.85
2023-05-17T09:57:23.351Z,91.21
2023-05-17T09:59:53.032Z,91.61
2023-05-17T10:02:25.886Z,90.90
2023-05-17T10:04:58.568Z,91.11
2023-05-17T10:07:28.214Z,90.25
2023-05-17T10:09:57.477Z,90.84
2023-05-17T10:12:30.476Z,90.33
2023-05-17T10:15:00.061Z,89.15
2023-05-17T10:17:29.901Z,89.06
2023-05-17T10:20:00.538Z,89.86
2023-05-17T10:22:29.910Z,88.74
2023-05-17T10:24:58.988Z,88.55
2023-05-17T10:27:27.908Z,88.40
2023-05-17T10:29:56.170Z,88.09
2023-05-17T10:32:27.125Z,87.74
2023-05-17T10:35:09.205Z,86.31
2023-05-17T10:37:42.361Z,86.76
2023-05-17T10:40:13.801Z,85.45
2023-05-17T10:42:50.895Z,84.83
2023-05-17T10:45:22.570Z,84.91
2023-05-17T10:47:52.583Z,84.53
2023-05-17T10:50:24.014Z,84.27
2023-05-17T10:52:55.804Z,83.96
2023-05-17T10:55:26.132Z,84.16
2023-05-17T10:58:15.901Z,83.77
2023-05-17T11:00:47.085Z,84.70
2023-05-17T11:03:17.914Z,84.13
2023-05-17T11:06:12.715Z,84.06
2023-05-17T11:09:08.808Z,84.52
2023-05-17T11:11:36.762Z,84.86
2023-05-17T11:14:05.982Z,83.64
2023-05-17T11:16:37.413Z,82.96
2023-05-17T11:19:09.695Z,83.50
2023-05-17T11:21:46.472Z,83.24
2023-05-17T11:24:24.698Z,84.14
2023-05-17T11:26:55.931Z,83.42
2023-05-17T11:29:30.159Z,83.45
2023-05-17T11:31:58.380Z,83.25
2023-05-17T11:34:26.984Z,83.06
2023-05-17T11:36:56.934Z,83.11
2023-05-17T11:39:26.940Z,83.43
2023-05-17T11:41:56.786Z,83.26
2023-05-17T11:44:29.465Z,82.39
2023-05-17T11:47:04.987Z,81.56
2023-05-17T11:49:36.311Z,81.51
2023-05-17T11:52:06.120Z,80.83
2023-05-17T11:54:36.441Z,81.04
2023-05-17T11:57:05.217Z,80.92
2023-05-17T11:59:39.842Z,81.55
2023-05-17T12:02:08.084Z,82.25
2023-05-17T12:04:38.403Z,82.02
2023-05-17T12:07:10.456Z,81.69
2023-05-17T12:09:40.331Z,81.70
2023-05-17T12:12:09.734Z,81.37
2023-05-17T12:14:37.903Z,80.91
2023-05-17T12:17:09.780Z,81.23
2023-05-17T12:19:37.874Z,80.46
2023-05-17T12:22:12.409Z,80.54
2023-05-17T12:24:43.519Z,80.47
2023-05-17T12:27:12.045Z,79.34
2023-05-17T12:29:40.765Z,80.09
2023-05-17T12:32:11.199Z,80.52
2023-05-17T12:34:40.621Z,80.40
2023-05-17T12:37:10.872Z,80.35
2023-05-17T12:39:39.479Z,79.43
2023-05-17T12:42:10.313Z,79.32
2023-05-17T12:44:38.598Z,79.27
2023-05-17T12:47:07.514Z,79.28
2023-05-17T12:49:40.085Z,79.09
2023-05-17T12:52:08.736Z,78.65
2023-05-17T12:54:36.796Z,80.02
2023-05-17T12:57:15.976Z,79.74
2023-05-17T12:59:48.045Z,79.66
2023-05-17T13:02:16.785Z,79.14
2023-05-17T13:04:44.780Z,78.83
2023-05-17T13:07:13.117Z,79.01
2023-05-17T13:09:48.094Z,77.82
2023-05-17T13:12:22.351Z,77.47
2023-05-17T13:14:53.175Z,77.40
2023-05-17T13:17:26.426Z,77.42
2023-05-17T13:19:54.519Z,77.48
2023-05-17T13:22:23.793Z,77.05
2023-05-17T13:24:52.044Z,76.56
2023-05-17T13:27:21.328Z,76.20
2023-05-17T13:29:49.258Z,76.58
2023-05-17T13:32:17.198Z,76.95
2023-05-17T13:34:45.143Z,76.85
2023-05-17T13:37:13.245Z,76.41
2023-05-17T13:39:41.701Z,76.19
2023-05-17T13:42:10.565Z,76.91
2023-05-17T13:44:39.958Z,76.72
2023-05-17T13:47:09.027Z,76.61
2023-05-17T13:49:37.334Z,76.21
2023-05-17T13:52:08.463Z,76.59
2023-05-17T13:54:36.720Z,75.83
2023-05-17T13:57:05.308Z,75.34
2023-05-17T13:59:33.290Z,75.80
2023-05-17T14:02:04.122Z,76.03
2023-05-17T14:04:32.013Z,75.25
2023-05-17T14:07:00.037Z,75.52
2023-05-17T14:09:30.471Z,75.33
2023-05-17T14:12:00.373Z,74.98
2023-05-17T14:14:29.232Z,75.14
2023-05-17T14:16:57.757Z,75.18
2023-05-17T14:19:27.217Z,75.38
2023-05-17T14:21:55.272Z,74.67
2023-05-17T14:24:23.333Z,74.35
2023-05-17T14:26:51.299Z,74.78
2023-05-17T14:29:19.179Z,74.75
2023-05-17T14:31:47.234Z,75.19
2023-05-17T14:34:15.262Z,75.52
2023-05-17T14:36:44.680Z,75.45
2023-05-17T14:39:12.662Z,76.81
2023-05-17T14:41:41.634Z,76.27
2023-05-17T14:44:10.784Z,76.70
2023-05-17T14:46:38.650Z,76.83
2023-05-17T14:49:06.939Z,77.22
2023-05-17T14:51:34.912Z,77.31
2023-05-17T14:54:04.475Z,77.31
2023-05-17T14:56:32.406Z,76.37
2023-05-17T14:59:00.582Z,76.34
2023-05-17T15:01:29.130Z,76.23
2023-05-17T15:03:57.362Z,76.31
2023-05-17T15:06:26.168Z,76.02
2023-05-17T15:08:54.957Z,76.62
2023-05-17T15:11:24.322Z,75.82
2023-05-17T15:13:52.867Z,76.19
2023-05-17T15:16:21.060Z,76.22
2023-05-17T15:18:49.223Z,75.82
2023-05-17T15:21:19.017Z,75.67
2023-05-17T15:23:47.923Z,76.37
2023-05-17T15:26:15.793Z,75.59
2023-05-17T15:28:45.324Z,74.79
2023-05-17T15:31:13.256Z,75.08
2023-05-17T15:33:43.205Z,74.65
2023-05-17T15:36:13.215Z,73.70
2023-05-17T15:38:41.383Z,74.58
2023-05-17T15:41:14.187Z,73.96
2023-05-17T15:43:42.629Z,73.30
2023-05-17T15:46:12.164Z,74.32
2023-05-17T15:48:40.221Z,74.15
2023-05-17T15:51:08.715Z,74.37
2023-05-17T15:53:36.589Z,73.68
2023-05-17T15:56:04.887Z,73.93
2023-05-17T15:58:34.053Z,74.34
2023-05-17T16:01:04.995Z,74.94
2023-05-17T16:03:34.482Z,73.89
2023-05-17T16:06:04.210Z,74.64
2023-05-17T16:08:32.633Z,74.93
2023-05-17T16:11:02.321Z,73.74
2023-05-17T16:13:31.048Z,73.88
2023-05-17T16:15:59.669Z,73.88
2023-05-17T16:18:27.714Z,73.64
2023-05-17T16:21:01.168Z,73.68
2023-05-17T16:23:29.119Z,72.95
2023-05-17T16:25:57.265Z,73.46
2023-05-17T16:28:28.340Z,72.38
2023-05-17T16:30:56.321Z,73.28
2023-05-17T16:33:24.311Z,73.04
2023-05-17T16:35:52.336Z,72.93
2023-05-17T16:38:21.690Z,72.77
2023-05-17T16:40:49.718Z,72.82
2023-05-17T16:43:17.569Z,73.24
2023-05-17T16:45:46.465Z,73.25
2023-05-17T16:48:15.057Z,73.23
2023-05-17T16:50:43.323Z,73.75
2023-05-17T16:53:12.204Z,73.58
2023-05-17T16:55:42.176Z,73.82
2023-05-17T16:58:10.132Z,74.13
2023-05-17T17:00:40.087Z,73.34
2023-05-17T17:03:09.822Z,72.64
2023-05-17T17:05:38.269Z,72.55
2023-05-17T17:08:06.232Z,72.35
2023-05-17T17:10:35.807Z,71.47
2023-05-17T17:13:05.105Z,70.88
2023-05-17T17:15:33.101Z,71.62
2023-05-17T17:18:00.989Z,70.39
2023-05-17T17:20:29.189Z,70.11
2023-05-17T17:22:57.448Z,70.15
2023-05-17T17:25:25.795Z,69.87
2023-05-17T17:27:53.739Z,69.59
2023-05-17T17:30:23.036Z,69.48
2023-05-17T17:32:51.000Z,69.55
2023-05-17T17:35:19.015Z,69.92
2023-05-17T17:37:47.038Z,69.37
2023-05-17T17:40:15.043Z,69.46
2023-05-17T17:42:42.940Z,69.84
2023-05-17T17:45:11.520Z,69.79
2023-05-17T17:47:42.089Z,68.70
2023-05-17T17:50:10.564Z,69.50
2023-05-17T17:52:38.424Z,70.13
2023-05-17T17:55:10.093Z,69.74
2023-05-17T17:57:38.001Z,70.24
2023-05-17T18:00:17.301Z,69.54
2023-05-17T18:02:46.623Z,70.56
2023-05-17T18:05:14.607Z,70.89
2023-05-17T18:07:42.505Z,71.12
2023-05-17T18:10:11.201Z,71.45
2023-05-17T18:12:39.116Z,70.47
2023-05-17T18:15:07.690Z,71.22
2023-05-17T18:17:35.840Z,70.34
2023-05-17T18:20:06.782Z,70.95
2023-05-17T18:22:35.392Z,70.95
2023-05-17T18:25:03.252Z,70.76
2023-05-17T18:27:31.117Z,70.41
2023-05-17T18:29:58.961Z,71.54
2023-05-17T18:32:27.060Z,71.93
2023-05-17T18:34:55.076Z,70.69
2023-05-17T18:37:24.463Z,70.25
2023-05-17T18:39:53.916Z,69.89
2023-05-17T18:42:24.754Z,70.02
2023-05-17T18:44:52.687Z,69.47
2023-05-17T18:47:21.358Z,69.68
2023-05-17T18:49:49.365Z,71.22
2023-05-17T18:52:17.660Z,70.76
2023-05-17T18:54:47.612Z,70.46
2023-05-17T18:57:15.813Z,70.49
2023-05-17T18:59:43.737Z,69.98
2023-05-17T19:02:11.577Z,70.58
2023-05-17T19:04:40.040Z,69.92
2023-05-17T19:07:08.166Z,69.76
2023-05-17T19:09:36.097Z,70.30
2023-05-17T19:12:06.249Z,69.94
2023-05-17T19:14:34.171Z,69.73
2023-05-17T19:17:02.160Z,69.58
2023-05-17T19:19:31.138Z,69.89
2023-05-17T19:22:00.714Z,69.86
2023-05-17T19:24:28.692Z,69.09
2023-05-17T19:26:56.612Z,69.62
2023-05-17T19:29:27.171Z,69.33
2023-05-17T19:31:55.179Z,69.77
2023-05-17T19:34:23.076Z,70.16
2023-05-17T19:36:51.022Z,68.83
2023-05-17T19:39:19.569Z,70.06
2023-05-17T19:41:47.562Z,69.36
2023-05-17T19:44:15.539Z,70.04
2023-05-17T19:46:44.836Z,69.75
2023-05-17T19:49:13.795Z,69.02
2023-05-17T19:51:41.724Z,68.81
2023-05-17T19:54:09.611Z,68.87
2023-05-17T19:56:38.131Z,68.69
2023-05-17T19:59:06.213Z,68.21
2023-05-17T20:01:34.342Z,68.20
2023-05-17T20:04:03.707Z,68.46
2023-05-17T20:06:31.717Z,69.08
2023-05-17T20:08:59.575Z,68.87
2023-05-17T20:11:27.513Z,69.08
2023-05-17T20:13:55.392Z,69.40
2023-05-17T20:16:23.256Z,69.05
2023-05-17T20:18:51.228Z,68.41
2023-05-17T20:21:21.693Z,68.83
2023-05-17T20:23:51.414Z,68.54
2023-05-17T20:26:25.647Z,68.77
2023-05-17T20:28:54.232Z,68.13
2023-05-17T20:31:22.235Z,67.92
2023-05-17T20:33:50.114Z,68.63
2023-05-17T20:36:18.420Z,67.76
2023-05-17T20:38:49.125Z,67.49
2023-05-17T20:41:17.337Z,68.22
2023-05-17T20:43:46.224Z,67.49
2023-05-17T20:46:14.528Z,68.08
2023-05-17T20:48:45.859Z,67.31
2023-05-17T20:51:14.252Z,67.96
2023-05-17T20:53:42.142Z,67.05
2023-05-17T20:56:14.151Z,68.03
2023-05-17T20:58:42.080Z,68.14
2023-05-17T21:01:10.088Z,68.06
2023-05-17T21:03:39.794Z,68.32
2023-05-17T21:06:08.298Z,67.63
2023-05-17T21:08:36.735Z,67.95
2023-05-17T21:11:04.714Z,67.72
2023-05-17T21:13:34.081Z,68.19
2023-05-17T21:16:02.124Z,67.88
2023-05-17T21:18:30.079Z,67.70
2023-05-17T21:20:57.973Z,67.31
2023-05-17T21:23:25.879Z,67.97
2023-05-17T21:25:53.832Z,68.17
2023-05-17T21:28:21.707Z,67.85
2023-05-17T21:30:50.982Z,67.90
2023-05-17T21:33:18.912Z,68.48
2023-05-17T21:35:46.886Z,68.62
2023-05-17T21:38:14.854Z,68.21
2023-05-17T21:40:42.989Z,68.40
2023-05-17T21:43:11.324Z,68.07
2023-05-17T21:45:39.810Z,67.84
2023-05-17T21:48:09.426Z,68.09
2023-05-17T21:50:37.435Z,68.07
2023-05-17T21:53:05.444Z,68.36
2023-05-17T21:55:45.789Z,68.60
2023-05-17T21:58:21.224Z,68.45
2023-05-17T22:00:49.156Z,68.09
2023-05-17T22:03:18.534Z,67.80
2023-05-17T22:05:46.506Z,68.12
2023-05-17T22:08:14.475Z,69.01
2023-05-17T22:10:42.418Z,68.30
2023-05-17T22:13:12.333Z,68.06
2023-05-17T22:15:41.399Z,68.18
2023-05-17T22:18:12.053Z,68.89
2023-05-17T22:20:41.583Z,68.69
2023-05-17T22:23:09.501Z,68.78
2023-05-17T22:25:37.489Z,68.27
2023-05-17T22:28:05.428Z,67.91
2023-05-17T22:30:33.655Z,68.15
2023-05-17T22:33:03.105Z,68.54
2023-05-17T22:35:31.115Z,68.48
2023-05-17T22:38:00.468Z,68.16
2023-05-17T22:40:28.779Z,68.78
2023-05-17T22:42:58.136Z,69.00
2023-05-17T22:45:32.810Z,68.84
2023-05-17T22:48:02.950Z,68.22
2023-05-17T22:50:34.539Z,68.87
2023-05-17T22:53:05.985Z,68.67
2023-05-17T22:55:33.996Z,68.32
2023-05-17T22:58:01.943Z,68.54
2023-05-17T23:00:29.849Z,69.04
2023-05-17T23:02:57.840Z,69.26
2023-05-17T23:05:26.380Z,68.96
2023-05-17T23:07:54.282Z,69.08
2023-05-17T23:10:23.998Z,68.69
2023-05-17T23:12:52.706Z,68.76
2023-05-17T23:15:20.811Z,69.74
2023-05-17T23:17:48.844Z,69.77
2023-05-17T23:20:16.860Z,69.99
2023-05-17T23:22:44.807Z,69.17
2023-05-17T23:25:12.746Z,69.73
2023-05-17T23:27:44.469Z,69.32
2023-05-17T23:30:13.050Z,70.21
2023-05-17T23:32:42.712Z,69.90
2023-05-17T23:35:10.829Z,69.35
2023-05-17T23:37:38.820Z,69.82
2023-05-17T23:40:09.322Z,69.86
2023-05-17T23:42:37.290Z,69.85
2023-05-17T23:45:09.256Z,70.40
2023-05-17T23:47:40.696Z,70.15
2023-05-17T23:50:10.186Z,69.57
2023-05-17T23:52:38.967Z,70.30
2023-05-17T23:55:08.045Z,69.64
2023-05-17T23:57:36.609Z,69.60
